Time;durP1;ratioP1;P1;durP2;ratioP2;P2;SDS_P1;SDS_P2;PMS_P1;PMS_P2;Temp;Humidity;BMP_temperature;BMP_pressure;BME280_temperature;BME280_humidity;BME280_pressure;Samples;Min_cycle;Max_cycle;Signal;HPM_P1;HPM_P2
2023/05/19 00:00:17;;;;;;;9.57;3.00;;;;;;;12.75;100.00;96701.94;4999185;28;20484;-85
2023/05/19 00:02:43;;;;;;;7.57;2.57;;;;;;;12.78;100.00;96701.59;4995140;28;20027;-85
2023/05/19 00:05:10;;;;;;;8.70;3.00;;;;;;;12.93;100.00;96699.97;4971345;28;20077;-85
2023/05/19 00:07:37;;;;;;;6.67;3.13;;;;;;;12.76;100.00;96692.19;4979210;28;20027;-84
2023/05/19 00:10:22;;;;;;;10.27;3.00;;;;;;;13.18;100.00;96689.47;4991809;28;20060;-85
2023/05/19 00:12:48;;;;;;;7.53;2.70;;;;;;;12.78;100.00;96691.06;4963767;28;20109;-85
2023/05/19 00:15:14;;;;;;;7.40;3.10;;;;;;;12.86;100.00;96696.34;5005746;28;20034;-84
2023/05/19 00:17:41;;;;;;;9.80;3.10;;;;;;;12.86;100.00;96688.41;5001930;28;20101;-85
2023/05/19 00:20:07;;;;;;;7.87;2.90;;;;;;;12.88;100.00;96678.53;4986969;28;20018;-85
2023/05/19 00:22:33;;;;;;;10.33;2.90;;;;;;;12.94;100.00;96674.41;5010179;28;20033;-85
2023/05/19 00:24:59;;;;;;;8.27;2.93;;;;;;;13.19;100.00;96677.91;4992805;28;20053;-85
2023/05/19 00:27:24;;;;;;;7.93;3.40;;;;;;;12.84;100.00;96682.47;4989491;28;20033;-84
2023/05/19 00:29:50;;;;;;;5.20;2.57;;;;;;;12.86;100.00;96682.31;4973525;28;20030;-84
2023/05/19 00:32:15;;;;;;;6.50;2.70;;;;;;;12.50;100.00;96686.00;4974679;28;20045;-84
2023/05/19 00:34:41;;;;;;;9.67;3.13;;;;;;;12.50;100.00;96686.00;4991950;28;20157;-85
2023/05/19 00:37:06;;;;;;;8.07;3.30;;;;;;;11.96;100.00;96679.34;4980214;28;20026;-84
2023/05/19 00:39:32;;;;;;;9.63;2.90;;;;;;;12.02;100.00;96678.72;5012347;28;20038;-85
2023/05/19 00:41:57;;;;;;;9.10;3.00;;;;;;;12.29;100.00;96671.59;4980048;28;20032;-85
2023/05/19 00:44:23;;;;;;;8.37;2.97;;;;;;;12.30;100.00;96674.06;4993890;28;20107;-85
2023/05/19 00:46:49;;;;;;;8.23;3.23;;;;;;;12.29;100.00;96677.69;4971491;28;20467;-85
2023/05/19 00:49:15;;;;;;;13.13;3.73;;;;;;;12.40;100.00;96674.75;4970155;28;20484;-84
2023/05/19 00:51:40;;;;;;;7.93;3.07;;;;;;;12.56;100.00;96668.72;4965999;28;20049;-85
2023/05/19 00:54:07;;;;;;;6.40;3.10;;;;;;;12.33;100.00;96663.19;4973190;28;20021;-85
2023/05/19 00:56:32;;;;;;;9.53;3.23;;;;;;;12.31;100.00;96659.91;4963950;28;20033;-84
2023/05/19 00:58:59;;;;;;;8.33;2.83;;;;;;;12.12;100.00;96654.88;4992605;28;20491;-84
2023/05/19 01:01:26;;;;;;;9.07;3.40;;;;;;;12.05;100.00;96659.16;4992278;28;20037;-85
2023/05/19 01:03:52;;;;;;;9.60;3.27;;;;;;;12.01;100.00;96658.63;4995342;28;20045;-85
2023/05/19 01:06:17;;;;;;;7.40;3.40;;;;;;;11.97;100.00;96652.00;4990220;28;20072;-85
2023/05/19 01:08:44;;;;;;;8.63;3.30;;;;;;;12.11;100.00;96659.34;4991689;28;20022;-84
2023/05/19 01:11:09;;;;;;;8.87;3.50;;;;;;;11.97;100.00;96660.75;5016600;28;20029;-85
2023/05/19 01:13:35;;;;;;;8.47;3.50;;;;;;;11.86;100.00;96650.47;4991454;28;20026;-85
2023/05/19 01:16:36;;;;;;;9.47;3.57;;;;;;;11.78;100.00;96653.03;4993491;28;20480;-84
2023/05/19 01:19:39;;;;;;;8.23;3.27;;;;;;;11.90;100.00;96643.06;5011298;28;20029;-84
2023/05/19 01:22:32;;;;;;;9.20;3.40;;;;;;;11.85;100.00;96645.38;5011987;28;20065;-84
2023/05/19 01:25:33;;;;;;;6.93;3.13;;;;;;;11.90;100.00;96645.72;4998264;28;20028;-89
2023/05/19 01:28:25;;;;;;;9.40;3.17;;;;;;;11.92;100.00;96649.84;4999391;28;20053;-89
2023/05/19 01:30:57;;;;;;;9.40;3.20;;;;;;;11.72;100.00;96653.66;5023835;28;20040;-89
2023/05/19 01:33:23;;;;;;;9.97;3.50;;;;;;;11.80;100.00;96666.88;5003312;28;20557;-89
2023/05/19 01:35:50;;;;;;;8.23;3.40;;;;;;;11.83;100.00;96652.56;4985084;28;20076;-89
2023/05/19 01:38:18;;;;;;;11.23;3.50;;;;;;;11.66;100.00;96654.28;4996462;28;20072;-90
2023/05/19 01:40:45;;;;;;;11.10;3.70;;;;;;;12.06;100.00;96661.63;5012215;28;20451;-89
2023/05/19 01:43:15;;;;;;;7.93;2.97;;;;;;;12.00;100.00;96656.97;4988133;28;20014;-90
2023/05/19 01:45:46;;;;;;;8.50;3.57;;;;;;;11.98;100.00;96658.94;4982509;28;20050;-90
2023/05/19 01:48:12;;;;;;;8.50;3.30;;;;;;;12.26;100.00;96656.91;4989713;28;20026;-90
2023/05/19 01:50:38;;;;;;;11.07;3.43;;;;;;;12.17;100.00;96663.13;4996992;28;20024;-90
2023/05/19 01:53:04;;;;;;;13.17;5.87;;;;;;;12.22;100.00;96659.03;4985308;28;20080;-89
2023/05/19 01:55:30;;;;;;;9.90;3.07;;;;;;;12.63;100.00;96663.63;4980967;28;20029;-90
2023/05/19 01:58:30;;;;;;;7.87;3.20;;;;;;;12.42;100.00;96666.72;4997026;28;20076;-90
2023/05/19 02:01:03;;;;;;;9.57;3.67;;;;;;;12.13;100.00;96672.34;4975348;28;20037;-89
2023/05/19 02:03:32;;;;;;;;;;;;;;;12.10;100.00;96672.66;4982863;28;20087;-89
2023/05/19 02:06:07;;;;;;;10.47;3.60;;;;;;;12.19;100.00;96667.28;4989635;28;20386;-90
2023/05/19 02:08:43;;;;;;;9.17;3.50;;;;;;;12.08;100.00;96664.09;5014494;28;20576;-90
2023/05/19 02:11:17;;;;;;;7.43;3.50;;;;;;;12.25;100.00;96665.81;5000697;28;20029;-89
2023/05/19 02:13:46;;;;;;;8.23;2.90;;;;;;;12.34;100.00;96664.88;4995703;28;20420;-90
2023/05/19 02:16:12;;;;;;;5.83;2.87;;;;;;;12.08;100.00;96653.56;4988343;28;20455;-90
2023/05/19 02:18:39;;;;;;;9.17;3.20;;;;;;;12.42;100.00;96658.78;4998375;28;21069;-89
2023/05/19 02:21:15;;;;;;;7.53;3.60;;;;;;;12.03;100.00;96652.19;4982313;28;20068;-90
2023/05/19 02:23:40;;;;;;;9.77;3.17;;;;;;;12.31;100.00;96657.28;4982795;28;20022;-89
2023/05/19 02:26:07;;;;;;;10.33;3.63;;;;;;;12.37;100.00;96659.25;4975793;28;20834;-90
2023/05/19 02:28:35;;;;;;;7.73;2.90;;;;;;;12.01;100.00;96659.47;4995840;28;20399;-89
2023/05/19 02:31:01;;;;;;;7.63;3.73;;;;;;;12.05;100.00;96643.34;4996852;28;20041;-90
2023/05/19 02:33:29;;;;;;;10.10;3.20;;;;;;;11.90;100.00;96641.25;4995957;28;20026;-90
2023/05/19 02:35:55;;;;;;;14.57;3.40;;;;;;;11.87;100.00;96638.13;4996401;28;20022;-89
2023/05/19 02:38:22;;;;;;;18.77;3.87;;;;;;;11.67;100.00;96637.50;5010365;28;20019;-90
2023/05/19 02:40:50;;;;;;;10.03;3.80;;;;;;;11.76;100.00;96640.00;4996031;28;20036;-89
2023/05/19 02:43:15;;;;;;;11.90;3.70;;;;;;;11.69;100.00;96636.34;4975779;28;20057;-89
2023/05/19 02:45:41;;;;;;;9.20;3.20;;;;;;;11.65;100.00;96631.56;4995238;28;20028;-90
2023/05/19 02:48:06;;;;;;;11.73;3.27;;;;;;;11.92;100.00;96625.31;4996048;28;20030;-89
2023/05/19 02:50:32;;;;;;;12.67;3.43;;;;;;;12.09;100.00;96629.66;4993539;28;20084;-89
2023/05/19 02:52:58;;;;;;;11.07;4.30;;;;;;;12.30;100.00;96626.59;4995845;28;20021;-89
2023/05/19 02:55:23;;;;;;;9.50;3.33;;;;;;;12.06;100.00;96621.25;4998012;28;20026;-89
2023/05/19 02:57:49;;;;;;;7.57;3.17;;;;;;;12.09;100.00;96623.56;4971297;28;20361;-90
2023/05/19 03:00:15;;;;;;;10.47;4.27;;;;;;;12.02;100.00;96624.19;4992909;28;20030;-89
2023/05/19 03:02:42;;;;;;;10.83;4.20;;;;;;;12.37;100.00;96617.06;5007196;28;20030;-89
2023/05/19 03:05:09;;;;;;;8.87;3.17;;;;;;;12.25;100.00;96618.34;4997673;28;20022;-89
2023/05/19 03:07:35;;;;;;;9.10;2.83;;;;;;;12.18;100.00;96610.25;4988610;28;20022;-90
2023/05/19 03:10:05;;;;;;;9.60;3.20;;;;;;;12.08;100.00;96616.66;4998288;28;20024;-89
2023/05/19 03:12:32;;;;;;;8.03;2.97;;;;;;;12.09;100.00;96618.28;4982155;28;20041;-89
2023/05/19 03:14:58;;;;;;;9.77;3.23;;;;;;;12.18;100.00;96619.97;4979813;28;20061;-89
2023/05/19 03:17:24;;;;;;;7.30;3.47;;;;;;;12.06;100.00;96626.53;5004251;28;20451;-90
2023/05/19 03:19:50;;;;;;;6.70;3.23;;;;;;;12.22;100.00;96623.94;4985120;28;20071;-90
2023/05/19 03:22:17;;;;;;;7.13;3.00;;;;;;;12.23;100.00;96620.31;4980095;28;20021;-89
2023/05/19 03:24:43;;;;;;;9.80;3.13;;;;;;;12.09;100.00;96613.03;4996131;28;20021;-89
2023/05/19 03:27:10;;;;;;;8.07;3.07;;;;;;;11.97;100.00;96615.09;4999157;28;20022;-89
2023/05/19 03:29:36;;;;;;;8.37;3.63;;;;;;;12.13;100.00;96627.53;4994976;28;20084;-89
2023/05/19 03:32:01;;;;;;;6.60;2.83;;;;;;;11.99;100.00;96621.88;4990264;28;20468;-89
2023/05/19 03:34:27;;;;;;;9.13;3.13;;;;;;;11.97;100.00;96620.38;4970844;28;20041;-89
2023/05/19 03:36:54;;;;;;;8.83;3.33;;;;;;;11.65;100.00;96624.47;4995550;28;20108;-89
2023/05/19 03:39:21;;;;;;;6.53;3.40;;;;;;;11.74;100.00;96628.00;4977891;28;20022;-89
2023/05/19 03:41:47;;;;;;;7.17;2.80;;;;;;;11.78;100.00;96632.78;4996517;28;20022;-89
2023/05/19 03:44:13;;;;;;;10.77;3.63;;;;;;;11.60;100.00;96639.09;4978163;28;20025;-89
2023/05/19 03:46:39;;;;;;;8.33;3.10;;;;;;;11.31;100.00;96637.59;4988426;28;20032;-90
2023/05/19 03:49:07;;;;;;;9.03;2.80;;;;;;;11.67;100.00;96646.25;4996269;28;20470;-89
2023/05/19 03:51:38;;;;;;;7.50;2.90;;;;;;;11.73;100.00;96647.41;5012257;28;20053;-90
2023/05/19 03:54:21;;;;;;;10.00;3.30;;;;;;;11.42;100.00;96642.63;4992930;28;20022;-89
2023/05/19 03:56:47;;;;;;;7.73;2.83;;;;;;;11.36;100.00;96642.41;4998680;28;20061;-89
2023/05/19 03:59:12;;;;;;;10.20;3.30;;;;;;;11.28;100.00;96651.06;4983704;28;20049;-89
2023/05/19 04:01:38;;;;;;;9.30;3.20;;;;;;;11.16;100.00;96649.66;4999104;28;20029;-89
2023/05/19 04:04:03;;;;;;;10.17;3.50;;;;;;;11.15;100.00;96648.00;4993204;28;20010;-89
2023/05/19 04:06:32;;;;;;;9.97;3.27;;;;;;;10.99;100.00;96648.69;4993036;28;20708;-90
2023/05/19 04:08:58;;;;;;;10.50;3.50;;;;;;;11.10;100.00;96648.47;4998975;28;20042;-89
2023/05/19 04:11:24;;;;;;;9.70;3.27;;;;;;;11.22;100.00;96643.78;4998937;28;20097;-89
2023/05/19 04:13:50;;;;;;;7.73;3.23;;;;;;;10.99;100.00;96641.63;4987470;28;20030;-89
2023/05/19 04:16:16;;;;;;;8.87;4.17;;;;;;;11.12;100.00;96645.69;4990717;28;20022;-89
2023/05/19 04:18:44;;;;;;;8.60;3.03;;;;;;;10.84;100.00;96653.69;4998601;28;20025;-89
2023/05/19 04:21:09;;;;;;;10.20;3.10;;;;;;;10.96;100.00;96651.63;4982367;28;20052;-89
2023/05/19 04:23:37;;;;;;;7.13;2.93;;;;;;;11.13;100.00;96648.16;4998969;28;20022;-89
2023/05/19 04:26:05;;;;;;;9.50;3.17;;;;;;;10.83;100.00;96652.00;4984182;28;20030;-89
2023/05/19 04:28:32;;;;;;;9.87;3.17;;;;;;;11.00;100.00;96648.56;4974256;28;20116;-89
2023/05/19 04:30:58;;;;;;;7.33;3.10;;;;;;;10.79;100.00;96653.28;4975262;28;20478;-90
2023/05/19 04:33:25;;;;;;;6.23;2.77;;;;;;;11.17;100.00;96649.53;4996256;28;20017;-90
2023/05/19 04:35:50;;;;;;;12.57;4.13;;;;;;;11.01;100.00;96649.38;4996915;28;20034;-89
2023/05/19 04:38:19;;;;;;;12.00;7.27;;;;;;;10.84;100.00;96645.78;5005664;28;20029;-89
2023/05/19 04:40:49;;;;;;;12.67;5.03;;;;;;;10.80;100.00;96644.44;5008329;28;20631;-90
2023/05/19 04:43:15;;;;;;;16.20;3.87;;;;;;;10.96;100.00;96646.38;5003516;28;20030;-89
2023/05/19 04:45:41;;;;;;;6.57;2.80;;;;;;;11.12;100.00;96651.78;4990918;28;20056;-89
2023/05/19 04:48:09;;;;;;;12.63;3.43;;;;;;;10.96;100.00;96654.25;4993283;28;20499;-89
2023/05/19 04:50:37;;;;;;;7.87;3.00;;;;;;;11.00;100.00;96651.19;4997471;28;20018;-89
2023/05/19 04:53:03;;;;;;;8.00;3.57;;;;;;;11.25;100.00;96646.13;4977628;28;20022;-89
2023/05/19 04:55:39;;;;;;;12.23;4.80;;;;;;;11.55;100.00;96653.56;4998402;28;20029;-89
2023/05/19 04:58:05;;;;;;;9.10;3.60;;;;;;;11.37;100.00;96650.16;5007314;28;20034;-89
2023/05/19 05:00:34;;;;;;;9.47;3.50;;;;;;;11.55;100.00;96652.75;4998936;28;20025;-89
2023/05/19 05:03:03;;;;;;;9.90;3.40;;;;;;;11.95;100.00;96646.91;5000623;28;20125;-89
2023/05/19 05:05:31;;;;;;;10.70;2.80;;;;;;;11.56;100.00;96644.66;4983293;28;20053;-89
2023/05/19 05:07:57;;;;;;;11.53;3.67;;;;;;;11.67;100.00;96648.03;5013334;28;20022;-90
2023/05/19 05:10:26;;;;;;;12.07;3.60;;;;;;;11.94;100.00;96645.25;4997425;28;20036;-89
2023/05/19 05:12:53;;;;;;;7.50;2.90;;;;;;;12.42;100.00;96648.25;5008649;28;20021;-89
2023/05/19 05:15:19;;;;;;;11.87;4.40;;;;;;;12.45;100.00;96651.38;4983437;28;20026;-89
2023/05/19 05:17:49;;;;;;;12.73;6.00;;;;;;;12.02;100.00;96640.00;4997667;28;20040;-90
2023/05/19 05:20:15;;;;;;;10.63;6.40;;;;;;;12.18;100.00;96636.63;4978775;28;20045;-89
2023/05/19 05:22:41;;;;;;;9.47;4.47;;;;;;;12.45;100.00;96635.56;4997506;28;20022;-89
2023/05/19 05:25:08;;;;;;;8.13;4.47;;;;;;;12.40;100.00;96635.19;4995692;28;20430;-89
2023/05/19 05:27:35;;;;;;;9.83;4.07;;;;;;;12.19;100.00;96632.19;4998257;28;20079;-89
2023/05/19 05:30:04;;;;;;;11.57;3.60;;;;;;;12.05;100.00;96630.97;4995681;28;20065;-89
2023/05/19 05:32:30;;;;;;;8.30;3.37;;;;;;;12.24;100.00;96629.91;4998267;28;20033;-89
2023/05/19 05:34:58;;;;;;;9.60;4.13;;;;;;;12.41;100.00;96628.97;5015346;28;20032;-89
2023/05/19 05:37:24;;;;;;;12.83;3.50;;;;;;;12.37;100.00;96638.16;4985291;28;20036;-90
2023/05/19 05:39:49;;;;;;;8.43;3.37;;;;;;;12.31;100.00;96636.19;4987052;28;20026;-89
2023/05/19 05:42:15;;;;;;;10.43;3.90;;;;;;;12.46;100.00;96641.66;4977337;28;20032;-89
2023/05/19 05:44:41;;;;;;;9.33;3.40;;;;;;;12.50;100.00;96642.97;4983877;28;20014;-89
2023/05/19 05:47:10;;;;;;;18.20;4.13;;;;;;;12.35;100.00;96648.06;4995050;28;20076;-89
2023/05/19 05:49:39;;;;;;;12.70;4.13;;;;;;;12.33;100.00;96642.09;5007294;28;20014;-88
2023/05/19 05:52:06;;;;;;;9.27;3.37;;;;;;;12.43;100.00;96637.53;4995484;28;20029;-88
2023/05/19 05:54:39;;;;;;;9.67;3.50;;;;;;;12.68;100.00;96640.22;4980907;28;20026;-89
2023/05/19 05:57:06;;;;;;;10.53;3.60;;;;;;;12.53;100.00;96645.28;4999851;28;20038;-90
2023/05/19 05:59:32;;;;;;;9.13;3.27;;;;;;;12.42;100.00;96643.78;5006505;28;20022;-90
2023/05/19 06:01:58;;;;;;;8.33;2.93;;;;;;;12.57;100.00;96643.16;4973809;28;20041;-89
2023/05/19 06:04:24;;;;;;;7.73;2.80;;;;;;;12.93;100.00;96643.72;4997853;28;20431;-89
2023/05/19 06:06:51;;;;;;;7.23;2.70;;;;;;;12.94;100.00;96646.22;4998493;28;20104;-89
2023/05/19 06:09:21;;;;;;;7.73;3.00;;;;;;;12.39;100.00;96645.91;4998828;28;20060;-89
2023/05/19 06:11:46;;;;;;;8.87;3.00;;;;;;;12.81;100.00;96645.88;4987761;28;20017;-89
2023/05/19 06:14:12;;;;;;;9.53;2.87;;;;;;;12.94;100.00;96648.00;5021098;28;20037;-89
2023/05/19 06:16:58;;;;;;;7.57;3.10;;;;;;;12.97;100.00;96645.84;4995778;28;20141;-89
2023/05/19 06:19:24;;;;;;;8.77;3.03;;;;;;;13.24;100.00;96646.56;4978546;28;20472;-89
2023/05/19 06:21:50;;;;;;;9.03;3.23;;;;;;;13.08;100.00;96643.91;4989568;28;20055;-89
2023/05/19 06:24:16;;;;;;;12.80;3.67;;;;;;;12.86;100.00;96650.63;4997487;28;20038;-89
2023/05/19 06:26:42;;;;;;;12.33;3.50;;;;;;;12.83;100.00;96654.41;4997180;28;20046;-90
2023/05/19 06:29:07;;;;;;;6.60;2.70;;;;;;;13.18;100.00;96644.56;4997115;28;20026;-89
2023/05/19 06:31:33;;;;;;;9.67;3.43;;;;;;;13.24;100.00;96643.91;4980691;28;20080;-89
2023/05/19 06:34:09;;;;;;;8.13;3.30;;;;;;;13.75;100.00;96641.88;4988550;28;20057;-90
2023/05/19 06:36:35;;;;;;;9.93;3.00;;;;;;;13.62;100.00;96638.94;4996411;28;20021;-89
2023/05/19 06:39:01;;;;;;;8.13;4.00;;;;;;;13.87;100.00;96640.50;5002729;28;20022;-89
2023/05/19 06:41:28;;;;;;;6.57;3.70;;;;;;;13.90;100.00;96642.81;4995331;28;20114;-89
2023/05/19 06:43:53;;;;;;;7.17;3.20;;;;;;;13.86;100.00;96646.81;4997305;28;20037;-89
2023/05/19 06:46:20;;;;;;;5.50;2.57;;;;;;;13.81;100.00;96650.94;4985106;28;20479;-89
2023/05/19 06:48:47;;;;;;;6.77;2.57;;;;;;;13.67;100.00;96639.25;4996364;28;20049;-89
2023/05/19 06:51:15;;;;;;;9.43;3.67;;;;;;;13.76;100.00;96640.06;4996034;28;20053;-89
2023/05/19 06:53:41;;;;;;;10.03;3.73;;;;;;;13.88;100.00;96644.81;4989489;28;20109;-89
2023/05/19 06:56:08;;;;;;;6.40;2.90;;;;;;;14.09;100.00;96636.31;4981069;28;20308;-90
2023/05/19 06:58:38;;;;;;;10.47;3.07;;;;;;;13.98;100.00;96646.44;5009564;28;20022;-89
2023/05/19 07:01:04;;;;;;;8.23;2.87;;;;;;;14.21;100.00;96638.56;5005111;28;20055;-89
2023/05/19 07:03:35;;;;;;;12.50;3.33;;;;;;;14.29;100.00;96641.19;4999136;28;20083;-90
2023/05/19 07:06:02;;;;;;;10.37;3.20;;;;;;;14.49;100.00;96646.91;5017551;28;20085;-89
2023/05/19 07:08:28;;;;;;;6.53;3.33;;;;;;;14.36;100.00;96642.97;4979858;28;20160;-89
2023/05/19 07:10:56;;;;;;;38.90;22.03;;;;;;;14.70;100.00;96630.41;4990057;28;20387;-89
2023/05/19 07:13:22;;;;;;;10.60;4.00;;;;;;;14.80;100.00;96634.47;4996430;28;20037;-89
2023/05/19 07:15:48;;;;;;;10.83;3.60;;;;;;;14.93;100.00;96622.50;4996636;28;20030;-90
2023/05/19 07:18:15;;;;;;;9.07;3.43;;;;;;;14.75;100.00;96630.69;4996371;28;20030;-89
2023/05/19 07:20:41;;;;;;;9.77;3.03;;;;;;;14.69;100.00;96626.09;4988950;28;20014;-90
2023/05/19 07:23:06;;;;;;;9.27;2.97;;;;;;;14.81;100.00;96630.00;5000822;28;20026;-89
2023/05/19 07:25:32;;;;;;;8.13;3.13;;;;;;;14.70;100.00;96630.41;4997221;28;20026;-89
2023/05/19 07:27:58;;;;;;;12.40;3.13;;;;;;;14.94;100.00;96634.72;4999069;28;20092;-89
2023/05/19 07:30:26;;;;;;;9.77;3.33;;;;;;;14.65;100.00;96633.56;4997046;28;20014;-90
2023/05/19 07:32:55;;;;;;;9.03;2.97;;;;;;;14.21;100.00;96639.41;5005970;28;20030;-89
2023/05/19 07:35:21;;;;;;;11.33;4.33;;;;;;;14.58;100.00;96622.88;5003256;28;20042;-89
2023/05/19 07:37:48;;;;;;;8.57;2.90;;;;;;;14.28;100.00;96628.94;4984166;28;20121;-90
2023/05/19 07:40:14;;;;;;;6.67;3.20;;;;;;;14.60;100.00;96628.81;4984655;28;20033;-90
2023/05/19 07:42:40;;;;;;;7.93;2.70;;;;;;;14.65;100.00;96625.63;4979828;28;20131;-89
2023/05/19 07:45:06;;;;;;;9.30;2.93;;;;;;;14.88;100.00;96619.53;4986611;28;20029;-89
2023/05/19 07:47:31;;;;;;;11.80;2.90;;;;;;;14.81;100.00;96620.25;5009790;28;20053;-89
2023/05/19 07:49:57;;;;;;;7.97;3.40;;;;;;;14.26;100.00;96626.50;5021564;28;20026;-89
2023/05/19 07:52:23;;;;;;;7.97;3.10;;;;;;;14.60;100.00;96628.00;4999482;28;20025;-89
2023/05/19 07:54:48;;;;;;;10.43;3.30;;;;;;;14.43;100.00;96624.59;4995024;28;20488;-89
2023/05/19 07:57:14;;;;;;;8.97;3.17;;;;;;;14.39;100.00;96631.22;5013855;28;20393;-89
2023/05/19 07:59:39;;;;;;;9.37;3.27;;;;;;;14.58;100.00;96630.81;4984610;28;20026;-89
2023/05/19 08:02:05;;;;;;;13.67;3.90;;;;;;;13.76;100.00;96625.03;4982259;28;20034;-90
2023/05/19 08:04:31;;;;;;;10.17;3.80;;;;;;;13.99;100.00;96632.22;5019692;28;20045;-89
2023/05/19 08:06:57;;;;;;;9.97;3.23;;;;;;;13.76;100.00;96632.13;4983887;28;20136;-89
2023/05/19 08:09:22;;;;;;;12.57;3.70;;;;;;;14.27;100.00;96622.84;5011627;28;20602;-89
2023/05/19 08:11:48;;;;;;;12.37;3.23;;;;;;;14.71;100.00;96614.34;5005053;28;20026;-89
2023/05/19 08:14:14;;;;;;;10.73;3.80;;;;;;;14.66;100.00;96622.00;5013566;28;20036;-89
2023/05/19 08:16:41;;;;;;;9.27;3.70;;;;;;;15.00;100.00;96618.13;5005367;28;20033;-89
2023/05/19 08:19:08;;;;;;;14.90;3.47;;;;;;;14.70;100.00;96618.00;4990888;28;20037;-90
2023/05/19 08:21:34;;;;;;;12.70;4.57;;;;;;;14.72;100.00;96621.31;4998891;28;20053;-89
2023/05/19 08:24:00;;;;;;;9.07;3.37;;;;;;;14.72;100.00;96613.38;4999653;28;20105;-89
2023/05/19 08:26:27;;;;;;;9.27;3.60;;;;;;;15.00;100.00;96615.47;5013879;28;20037;-89
2023/05/19 08:28:52;;;;;;;10.03;3.83;;;;;;;14.59;100.00;96615.78;4999643;28;20018;-89
2023/05/19 08:31:18;;;;;;;10.60;3.77;;;;;;;14.08;100.00;96618.81;5014835;28;20033;-90
2023/05/19 08:33:44;;;;;;;9.43;3.43;;;;;;;14.89;100.00;96616.72;4982939;28;20123;-90
2023/05/19 08:36:10;;;;;;;10.27;3.30;;;;;;;15.29;100.00;96604.97;4999410;28;20034;-89
2023/05/19 08:38:35;;;;;;;10.00;3.40;;;;;;;15.06;100.00;96607.66;4999608;28;20716;-89
2023/05/19 08:41:01;;;;;;;10.73;4.17;;;;;;;15.53;100.00;96598.63;5009490;28;20040;-90
2023/05/19 08:43:27;;;;;;;11.50;3.90;;;;;;;15.33;100.00;96606.25;4974010;28;20026;-90
2023/05/19 08:45:54;;;;;;;10.70;4.60;;;;;;;15.32;100.00;96607.28;4997430;28;20033;-89
2023/05/19 08:48:21;;;;;;;11.50;4.30;;;;;;;16.05;100.00;96599.56;4976759;28;20033;-89
2023/05/19 08:51:31;;;;;;;9.07;4.43;;;;;;;16.13;100.00;96603.94;4994322;28;20029;-90
2023/05/19 08:54:03;;;;;;;12.73;4.37;;;;;;;16.08;100.00;96607.16;5002474;28;20026;-90
2023/05/19 08:56:30;;;;;;;9.00;3.17;;;;;;;15.94;100.00;96595.53;5015439;28;20193;-90
2023/05/19 08:58:59;;;;;;;7.83;3.07;;;;;;;16.21;100.00;96596.69;4996879;28;20070;-90
2023/05/19 09:01:27;;;;;;;10.20;3.10;;;;;;;15.83;100.00;96600.47;5000264;28;20153;-89
2023/05/19 09:03:53;;;;;;;7.93;3.87;;;;;;;15.91;100.00;96597.75;4998605;28;20061;-90
2023/05/19 09:06:20;;;;;;;8.77;3.70;;;;;;;16.45;100.00;96603.50;4998969;28;20052;-89
2023/05/19 09:08:46;;;;;;;11.00;4.77;;;;;;;16.04;100.00;96600.56;4982964;28;20029;-89
2023/05/19 09:11:11;;;;;;;9.23;4.27;;;;;;;16.25;100.00;96592.66;5011052;28;20057;-90
2023/05/19 09:13:37;;;;;;;9.33;3.77;;;;;;;15.94;100.00;96595.53;5014726;28;20032;-90
2023/05/19 09:16:04;;;;;;;7.40;3.60;;;;;;;15.93;100.00;96596.56;5000774;28;20030;-90
2023/05/19 09:18:29;;;;;;;11.07;4.30;;;;;;;15.63;100.00;96590.41;4985094;28;20026;-89
2023/05/19 09:21:01;;;;;;;8.73;3.70;;;;;;;15.93;100.00;96593.09;4985853;28;20022;-90
2023/05/19 09:23:29;;;;;;;9.50;3.93;;;;;;;15.46;100.00;96596.84;4990711;28;20048;-89
2023/05/19 09:25:56;;;;;;;10.13;3.83;;;;;;;15.80;100.00;96596.38;4984582;28;20030;-90
2023/05/19 09:28:30;;;;;;;11.67;4.20;;;;;;;16.15;100.00;96594.78;4997548;28;20062;-89
2023/05/19 09:31:00;;;;;;;12.00;4.07;;;;;;;16.17;100.00;96590.13;5000268;28;20472;-89
2023/05/19 09:33:27;;;;;;;10.83;3.77;;;;;;;15.37;100.00;96592.66;4992200;28;20088;-89
2023/05/19 09:35:54;;;;;;;8.20;3.70;;;;;;;15.91;100.00;96581.81;4997943;28;20045;-89
2023/05/19 09:38:20;;;;;;;8.97;4.00;;;;;;;15.67;100.00;96589.06;4999805;28;20030;-89
2023/05/19 09:40:48;;;;;;;11.57;4.43;;;;;;;15.78;100.00;96583.28;5006382;28;20768;-90
2023/05/19 09:43:13;;;;;;;7.30;3.53;;;;;;;15.29;100.00;96585.56;5007761;28;20065;-89
2023/05/19 09:45:39;;;;;;;7.87;3.30;;;;;;;15.76;100.00;96582.66;5000346;28;20076;-89
2023/05/19 09:48:05;;;;;;;9.20;4.57;;;;;;;16.54;100.00;96574.22;4996512;28;20041;-89
2023/05/19 09:50:31;;;;;;;11.00;4.27;;;;;;;17.23;100.00;96573.63;4981430;28;20121;-90
2023/05/19 09:52:57;;;;;;;7.47;3.37;;;;;;;16.96;100.00;96571.56;4997709;28;20124;-89
2023/05/19 09:55:25;;;;;;;8.90;3.37;;;;;;;16.49;100.00;96578.22;4993495;28;20056;-90
2023/05/19 09:57:54;;;;;;;11.73;4.10;;;;;;;16.59;100.00;96569.97;4997893;28;20545;-90
2023/05/19 10:00:21;;;;;;;10.57;3.57;;;;;;;15.84;100.00;96572.97;4997664;28;20030;-90
2023/05/19 10:02:49;;;;;;;9.57;3.57;;;;;;;15.97;100.00;96573.13;5007257;28;20387;-90
2023/05/19 10:05:18;;;;;;;9.43;3.93;;;;;;;15.95;100.00;96575.13;4998377;28;20021;-90
2023/05/19 10:07:53;;;;;;;13.47;3.67;;;;;;;15.82;100.00;96564.34;4981929;28;20506;-90
2023/05/19 10:10:27;;;;;;;9.20;4.13;;;;;;;16.21;100.00;96564.84;4998125;28;20033;-90
2023/05/19 10:12:53;;;;;;;9.53;3.63;;;;;;;16.25;100.00;96560.81;4991695;28;20033;-90
2023/05/19 10:15:19;;;;;;;9.93;3.70;;;;;;;16.05;100.00;96554.44;5014312;28;20029;-91
2023/05/19 10:17:45;;;;;;;8.53;3.73;;;;;;;16.17;100.00;96560.13;4983824;28;20105;-91
2023/05/19 10:20:13;;;;;;;12.67;4.40;;;;;;;16.34;100.00;96558.88;4998244;28;20026;-90
2023/05/19 10:22:41;;;;;;;12.10;3.87;;;;;;;16.08;100.00;96564.69;4980451;28;20034;-90
2023/05/19 10:25:07;;;;;;;9.07;3.20;;;;;;;16.23;100.00;96562.00;4982467;28;20069;-91
2023/05/19 10:27:43;;;;;;;8.57;3.77;;;;;;;16.36;100.00;96561.34;4981193;28;20021;-90
2023/05/19 10:30:19;;;;;;;10.23;3.97;;;;;;;16.28;100.00;96559.63;4996549;28;20021;-90
2023/05/19 10:32:49;;;;;;;9.97;4.67;;;;;;;16.67;100.00;96558.41;4969949;28;20045;-91
2023/05/19 10:35:15;;;;;;;7.80;3.50;;;;;;;16.53;100.00;96559.28;4981427;28;20029;-90
2023/05/19 10:38:10;;;;;;;8.20;3.73;;;;;;;16.13;100.00;96557.03;4983953;28;20061;-90
2023/05/19 10:41:10;;;;;;;11.07;3.60;;;;;;;16.20;100.00;96562.41;4990505;28;20455;-90
2023/05/19 10:43:59;;;;;;;16.33;6.00;;;;;;;16.40;100.00;96560.78;4989632;28;20148;-91
2023/05/19 10:46:25;;;;;;;11.03;4.47;;;;;;;16.09;100.00;96565.50;4995039;28;20088;-90
2023/05/19 10:48:51;;;;;;;12.13;4.40;;;;;;;15.35;100.00;96573.44;4993970;28;20046;-91
2023/05/19 10:51:17;;;;;;;13.13;3.80;;;;;;;15.76;100.00;96573.84;4994966;28;20089;-90
2023/05/19 10:53:45;;;;;;;12.30;4.50;;;;;;;15.75;100.00;96575.69;4996930;28;20025;-90
2023/05/19 10:56:28;;;;;;;14.40;4.57;;;;;;;15.52;100.00;96567.78;4984729;28;20018;-91
2023/05/19 10:58:54;;;;;;;9.52;3.90;;;;;;;15.46;100.00;96571.19;4983296;28;20030;-86
2023/05/19 11:01:23;;;;;;;8.37;4.00;;;;;;;15.86;100.00;96571.78;4977903;28;20381;-85
2023/05/19 11:03:55;;;;;;;10.53;3.90;;;;;;;15.27;100.00;96567.22;4992474;28;20037;-84
2023/05/19 11:06:28;;;;;;;8.57;3.87;;;;;;;15.37;100.00;96566.16;5016596;28;20021;-84
2023/05/19 11:08:57;;;;;;;10.02;4.53;;;;;;;15.78;100.00;96564.72;4988222;28;20535;-89
2023/05/19 11:11:23;;;;;;;9.93;4.27;;;;;;;15.56;100.00;96568.28;5003099;28;20064;-88
2023/05/19 11:13:56;;;;;;;8.33;4.10;;;;;;;16.33;100.00;96567.88;5003314;28;20018;-89
2023/05/19 11:16:30;;;;;;;10.67;4.53;;;;;;;16.00;100.00;96568.28;4987877;28;20080;-88
2023/05/19 11:18:58;;;;;;;12.50;4.10;;;;;;;15.86;100.00;96557.66;4984918;28;20025;-88
2023/05/19 11:21:51;;;;;;;11.47;3.93;;;;;;;16.23;100.00;96549.59;5000899;28;20029;-88
2023/05/19 11:24:49;;;;;;;10.63;4.20;;;;;;;16.14;100.00;96553.34;5000429;28;20041;-88
2023/05/19 11:27:29;;;;;;;9.67;3.60;;;;;;;16.29;100.00;96544.53;4991896;28;20389;-89